Time;durP1;ratioP1;P1;durP2;ratioP2;P2;SDS_P1;SDS_P2;PMS_P1;PMS_P2;Temp;Humidity;BMP_temperature;BMP_pressure;BME280_temperature;BME280_humidity;BME280_pressure;Samples;Min_cycle;Max_cycle;Signal;HPM_P1;HPM_P2
2024/02/04 00:00:03;;;;;;;3.28;2.88;;;9.00;99.90;;;;;;2071346;28;20041;-70
2024/02/04 00:01:11;;;;;;;2.88;2.55;;;9.10;99.90;;;;;;2067950;28;20038;-69
2024/02/04 00:02:14;;;;;;;3.30;3.00;;;9.00;99.90;;;;;;2072371;28;20555;-70
2024/02/04 00:03:14;;;;;;;3.00;2.70;;;9.00;99.90;;;;;;2068272;28;20096;-70
2024/02/04 00:04:15;;;;;;;4.00;2.70;;;9.00;99.90;;;;;;2067431;28;20444;-70
2024/02/04 00:05:15;;;;;;;3.33;2.70;;;9.00;99.90;;;;;;2071306;28;20028;-69
2024/02/04 00:06:16;;;;;;;3.33;2.80;;;9.00;99.90;;;;;;2077199;28;20037;-70
2024/02/04 00:07:17;;;;;;;3.13;2.75;;;9.00;99.90;;;;;;2070399;28;20057;-70
2024/02/04 00:08:17;;;;;;;3.30;3.00;;;9.00;99.90;;;;;;2071499;28;20034;-70
2024/02/04 00:09:18;;;;;;;3.10;2.80;;;9.00;99.90;;;;;;2066041;28;20030;-69
2024/02/04 00:10:19;;;;;;;2.97;2.70;;;9.10;99.90;;;;;;2070764;28;20053;-69
2024/02/04 00:11:19;;;;;;;3.72;3.05;;;9.10;99.90;;;;;;2072383;28;20065;-69
2024/02/04 00:12:20;;;;;;;4.43;2.92;;;9.10;99.90;;;;;;2063735;28;20475;-70
2024/02/04 00:13:20;;;;;;;3.38;3.08;;;9.10;99.90;;;;;;2068024;28;20128;-70
2024/02/04 00:14:21;;;;;;;3.17;2.88;;;9.10;99.90;;;;;;2072331;28;20057;-70
2024/02/04 00:15:22;;;;;;;3.45;3.15;;;9.10;99.90;;;;;;2066587;28;20125;-71
2024/02/04 00:16:23;;;;;;;3.50;3.20;;;9.10;99.90;;;;;;2069275;28;20435;-70
2024/02/04 00:17:24;;;;;;;3.40;3.10;;;9.10;99.90;;;;;;2060963;28;20042;-69
2024/02/04 00:18:25;;;;;;;3.75;3.00;;;9.10;99.90;;;;;;2069566;28;20038;-69
2024/02/04 00:19:26;;;;;;;5.15;3.22;;;9.10;99.90;;;;;;2065696;28;20511;-70
2024/02/04 00:20:29;;;;;;;3.50;3.20;;;9.10;99.90;;;;;;2075977;28;20042;-70
2024/02/04 00:21:29;;;;;;;3.30;3.00;;;9.10;99.90;;;;;;2072110;28;20088;-70
2024/02/04 00:22:30;;;;;;;5.03;2.90;;;9.10;99.90;;;;;;2070177;28;20046;-70
2024/02/04 00:23:30;;;;;;;3.65;3.08;;;9.10;99.90;;;;;;2070728;28;21323;-71
2024/02/04 00:24:31;;;;;;;3.55;2.78;;;9.00;99.90;;;;;;2065617;28;20080;-70
2024/02/04 00:25:31;;;;;;;3.17;2.88;;;9.10;99.90;;;;;;2071713;28;20034;-70
2024/02/04 00:26:32;;;;;;;3.67;3.00;;;9.10;99.90;;;;;;2070451;28;20087;-70
2024/02/04 00:27:33;;;;;;;3.10;2.80;;;9.00;99.90;;;;;;2068741;28;20044;-70
2024/02/04 00:28:33;;;;;;;4.50;2.92;;;9.00;99.90;;;;;;2070986;28;20094;-70
2024/02/04 00:29:34;;;;;;;4.47;3.10;;;9.00;99.90;;;;;;2054539;28;20062;-70
2024/02/04 00:30:34;;;;;;;3.50;3.20;;;9.00;99.90;;;;;;2050328;28;20030;-70
2024/02/04 00:31:35;;;;;;;3.42;2.97;;;9.00;99.90;;;;;;2064273;28;20029;-69
2024/02/04 00:32:35;;;;;;;3.70;3.25;;;9.00;99.90;;;;;;2071247;28;20124;-70
2024/02/04 00:33:36;;;;;;;4.20;3.15;;;8.90;99.90;;;;;;2070920;28;20099;-70
2024/02/04 00:34:37;;;;;;;3.03;2.72;;;9.00;99.90;;;;;;2075981;28;20037;-69
2024/02/04 00:35:37;;;;;;;3.55;3.25;;;9.00;99.90;;;;;;2071394;28;20115;-70
2024/02/04 00:36:38;;;;;;;4.20;3.38;;;9.00;99.90;;;;;;2067556;28;20029;-70
2024/02/04 00:37:38;;;;;;;4.20;3.20;;;9.00;99.90;;;;;;2068219;28;20108;-71
2024/02/04 00:38:39;;;;;;;3.58;3.25;;;9.00;99.90;;;;;;2056038;28;20030;-70
2024/02/04 00:39:39;;;;;;;4.70;3.53;;;9.00;99.90;;;;;;2061594;28;20039;-69
2024/02/04 00:40:40;;;;;;;3.60;3.30;;;9.00;99.90;;;;;;2071089;28;20060;-70
2024/02/04 00:41:40;;;;;;;4.07;3.67;;;9.00;99.90;;;;;;2068526;28;20033;-69
2024/02/04 00:42:41;;;;;;;3.92;3.20;;;9.00;99.90;;;;;;2075826;28;20060;-69
2024/02/04 00:43:42;;;;;;;3.72;3.30;;;9.00;99.90;;;;;;2079623;28;20033;-70
2024/02/04 00:44:42;;;;;;;4.93;3.40;;;9.00;99.90;;;;;;2067918;28;20034;-70
2024/02/04 00:45:43;;;;;;;3.97;3.58;;;9.00;99.90;;;;;;2072560;28;20034;-69
2024/02/04 00:46:44;;;;;;;3.72;3.30;;;9.00;99.90;;;;;;2072307;28;20029;-70
2024/02/04 00:47:44;;;;;;;4.13;3.60;;;8.90;99.90;;;;;;2059726;28;20045;-70
2024/02/04 00:48:45;;;;;;;3.33;3.03;;;9.00;99.90;;;;;;2067625;28;20567;-70
2024/02/04 00:49:46;;;;;;;4.15;3.30;;;9.00;99.90;;;;;;2070734;28;20476;-71
2024/02/04 00:50:46;;;;;;;4.47;3.30;;;9.00;99.90;;;;;;2063393;28;20050;-69
2024/02/04 00:51:48;;;;;;;4.28;3.45;;;9.00;99.90;;;;;;2063622;28;20030;-70
2024/02/04 00:52:48;;;;;;;3.80;3.35;;;8.90;99.90;;;;;;2066775;28;20113;-70
2024/02/04 00:53:49;;;;;;;3.53;3.15;;;8.90;99.90;;;;;;2070859;28;20033;-70
2024/02/04 00:54:50;;;;;;;4.32;3.30;;;8.90;99.90;;;;;;2060166;28;20031;-69
2024/02/04 00:55:50;;;;;;;3.53;3.00;;;8.90;99.90;;;;;;2062653;28;20030;-70
2024/02/04 00:56:51;;;;;;;4.18;3.20;;;8.90;99.90;;;;;;2055027;28;20081;-69
2024/02/04 00:57:52;;;;;;;4.15;3.00;;;8.90;99.90;;;;;;2059350;28;20034;-69
2024/02/04 00:58:52;;;;;;;3.80;3.03;;;8.80;99.90;;;;;;2075791;28;20029;-69
2024/02/04 00:59:53;;;;;;;3.25;2.88;;;8.90;99.90;;;;;;2071990;28;20508;-70
2024/02/04 01:00:54;;;;;;;3.20;2.90;;;8.80;99.90;;;;;;2071151;28;20033;-69
2024/02/04 01:01:55;;;;;;;3.45;3.10;;;8.80;99.90;;;;;;2058846;28;20109;-65
2024/02/04 01:02:56;;;;;;;3.83;3.33;;;8.90;99.90;;;;;;2056981;28;20097;-70
2024/02/04 01:03:57;;;;;;;3.72;3.10;;;8.80;99.90;;;;;;2062534;28;20735;-70
2024/02/04 01:04:57;;;;;;;3.53;3.00;;;8.80;99.90;;;;;;2071332;28;20487;-69
2024/02/04 01:05:58;;;;;;;3.20;2.90;;;8.80;99.90;;;;;;2064462;28;20066;-71
2024/02/04 01:06:58;;;;;;;4.30;2.97;;;8.80;99.90;;;;;;2067603;28;20026;-71
2024/02/04 01:08:00;;;;;;;4.47;3.35;;;8.70;99.90;;;;;;2068272;28;20172;-70
2024/02/04 01:09:01;;;;;;;5.75;3.13;;;8.80;99.90;;;;;;2070113;28;20037;-70
2024/02/04 01:10:01;;;;;;;4.07;3.58;;;8.80;99.90;;;;;;2071141;28;20034;-70
2024/02/04 01:11:02;;;;;;;3.45;3.15;;;8.80;99.90;;;;;;2079927;28;20033;-70
2024/02/04 01:12:03;;;;;;;4.63;3.20;;;8.80;99.90;;;;;;2077514;28;20051;-70
2024/02/04 01:13:04;;;;;;;4.63;3.22;;;8.80;99.90;;;;;;2068477;28;20080;-70
2024/02/04 01:14:05;;;;;;;4.85;3.10;;;8.80;99.90;;;;;;2071399;28;20526;-71
2024/02/04 01:15:06;;;;;;;3.85;3.17;;;8.90;99.90;;;;;;2066089;28;20491;-71
2024/02/04 01:16:06;;;;;;;3.65;3.00;;;8.80;99.90;;;;;;2065857;28;20673;-69
2024/02/04 01:17:07;;;;;;;5.15;3.40;;;8.80;99.90;;;;;;2067866;28;20833;-70
2024/02/04 01:18:08;;;;;;;3.28;2.97;;;8.80;99.90;;;;;;2063174;28;20042;-70
2024/02/04 01:19:08;;;;;;;3.72;3.10;;;8.80;99.90;;;;;;2068910;28;20140;-70
2024/02/04 01:20:10;;;;;;;2.97;2.63;;;8.80;99.90;;;;;;2067938;28;20075;-69
2024/02/04 01:21:10;;;;;;;3.67;2.90;;;8.80;99.90;;;;;;2069120;28;20041;-70
2024/02/04 01:22:11;;;;;;;3.55;3.15;;;8.80;99.90;;;;;;2069061;28;20038;-70
2024/02/04 01:23:12;;;;;;;3.28;2.75;;;8.80;99.90;;;;;;2077062;28;20091;-70
2024/02/04 01:24:13;;;;;;;4.22;2.80;;;8.80;99.90;;;;;;2064579;28;20117;-70
2024/02/04 01:25:14;;;;;;;3.35;2.90;;;8.80;99.90;;;;;;2055990;28;20030;-70
2024/02/04 01:26:15;;;;;;;4.47;2.90;;;8.80;99.90;;;;;;2060613;28;20512;-70
2024/02/04 01:27:15;;;;;;;3.33;2.70;;;8.90;99.90;;;;;;2062996;28;20034;-70
2024/02/04 01:28:16;;;;;;;4.68;2.80;;;8.90;99.90;;;;;;2061738;28;20450;-69
2024/02/04 01:29:17;;;;;;;4.15;3.00;;;8.90;99.90;;;;;;2060115;28;20031;-70
2024/02/04 01:30:17;;;;;;;3.75;2.70;;;9.00;99.90;;;;;;2071094;28;20129;-67
2024/02/04 01:31:18;;;;;;;3.30;2.50;;;9.00;99.90;;;;;;2069120;28;20526;-67
2024/02/04 01:32:18;;;;;;;5.55;2.78;;;9.00;99.90;;;;;;2066577;28;20395;-68
2024/02/04 01:33:19;;;;;;;5.95;3.00;;;9.00;99.90;;;;;;2068541;28;20034;-68
2024/02/04 01:34:19;;;;;;;3.70;2.88;;;9.00;99.90;;;;;;2068268;28;20053;-67
2024/02/04 01:35:20;;;;;;;3.67;2.60;;;8.90;99.90;;;;;;2068778;28;20113;-67
2024/02/04 01:36:20;;;;;;;3.47;2.70;;;8.90;99.90;;;;;;2069639;28;20026;-68
2024/02/04 01:37:21;;;;;;;4.72;2.90;;;9.00;99.90;;;;;;2067653;28;20116;-67
2024/02/04 01:38:22;;;;;;;3.83;2.75;;;8.90;99.90;;;;;;2067831;28;20025;-69
2024/02/04 01:39:22;;;;;;;3.17;2.60;;;8.90;99.90;;;;;;2064703;28;20038;-67
2024/02/04 01:40:23;;;;;;;3.45;2.60;;;8.90;99.90;;;;;;2067629;28;20062;-70
2024/02/04 01:41:26;;;;;;;4.28;2.70;;;8.90;99.90;;;;;;2066505;28;20851;-69
2024/02/04 01:42:27;;;;;;;3.00;2.35;;;8.80;99.90;;;;;;2075770;28;20021;-70
2024/02/04 01:43:27;;;;;;;3.78;2.75;;;8.80;99.90;;;;;;2075035;28;20137;-69
2024/02/04 01:44:28;;;;;;;3.53;2.38;;;8.80;99.90;;;;;;2067295;28;20084;-70
2024/02/04 01:45:29;;;;;;;3.85;2.60;;;8.80;99.90;;;;;;2058096;28;20700;-70
2024/02/04 01:46:29;;;;;;;4.72;2.75;;;8.80;99.90;;;;;;2062955;28;20030;-70
2024/02/04 01:47:30;;;;;;;2.88;2.40;;;8.80;99.90;;;;;;2066772;28;20063;-70
2024/02/04 01:48:31;;;;;;;2.60;2.40;;;8.80;99.90;;;;;;2059065;28;20046;-71
2024/02/04 01:49:31;;;;;;;4.13;2.70;;;8.80;99.90;;;;;;2050262;28;20105;-69
2024/02/04 01:50:32;;;;;;;2.92;2.50;;;8.70;99.90;;;;;;2059062;28;20117;-69
2024/02/04 01:51:33;;;;;;;4.00;2.70;;;8.70;99.90;;;;;;2063529;28;20042;-69
2024/02/04 01:52:37;;;;;;;2.75;2.42;;;8.70;99.90;;;;;;2066309;28;20113;-69
2024/02/04 01:53:39;;;;;;;3.40;2.65;;;8.70;99.90;;;;;;2070736;28;20025;-69
2024/02/04 01:54:42;;;;;;;4.32;2.65;;;8.70;99.90;;;;;;2070733;28;20033;-70
2024/02/04 01:55:43;;;;;;;4.53;2.70;;;8.70;99.90;;;;;;2060658;28;20038;-70
2024/02/04 01:56:49;;;;;;;2.97;2.60;;;8.70;99.90;;;;;;2061190;28;20073;-69
2024/02/04 01:57:50;;;;;;;3.10;2.40;;;8.70;99.90;;;;;;2063277;28;20038;-69
2024/02/04 01:58:51;;;;;;;3.08;2.60;;;8.70;99.90;;;;;;2061737;28;20098;-70
2024/02/04 01:59:54;;;;;;;4.43;2.60;;;8.80;99.90;;;;;;2060152;28;20056;-70
2024/02/04 02:00:55;;;;;;;4.25;2.80;;;8.70;99.90;;;;;;2063125;28;20034;-69
2024/02/04 02:01:59;;;;;;;3.58;2.45;;;8.70;99.90;;;;;;2062132;28;20629;-70
2024/02/04 02:03:01;;;;;;;4.57;2.45;;;8.70;99.90;;;;;;2063175;28;20095;-70
2024/02/04 02:04:04;;;;;;;4.10;2.72;;;8.60;99.90;;;;;;2067553;28;20837;-70
2024/02/04 02:05:05;;;;;;;2.67;2.30;;;8.70;99.90;;;;;;2070156;28;20545;-71
2024/02/04 02:06:06;;;;;;;3.72;2.25;;;8.70;99.90;;;;;;2063145;28;20026;-69
2024/02/04 02:07:07;;;;;;;3.65;2.50;;;8.70;99.90;;;;;;2062005;28;20191;-70
2024/02/04 02:08:09;;;;;;;3.88;2.40;;;8.70;99.90;;;;;;2067871;28;20041;-69
2024/02/04 02:09:12;;;;;;;3.03;2.47;;;8.70;99.90;;;;;;2059967;28;20518;-68
2024/02/04 02:10:13;;;;;;;3.80;2.55;;;8.70;99.90;;;;;;2068915;28;20030;-70
2024/02/04 02:11:23;;;;;;;3.22;2.40;;;8.70;99.90;;;;;;2064766;28;20389;-70
2024/02/04 02:12:28;;;;;;;2.85;2.45;;;8.70;99.90;;;;;;2067298;28;20478;-70
2024/02/04 02:13:32;;;;;;;2.75;2.55;;;8.70;99.90;;;;;;2060549;28;20044;-70
2024/02/04 02:14:35;;;;;;;4.13;2.65;;;8.70;99.90;;;;;;2067260;28;20029;-70
2024/02/04 02:15:44;;;;;;;2.90;2.45;;;8.80;99.90;;;;;;2058637;28;20038;-69
2024/02/04 02:16:46;;;;;;;3.10;2.35;;;8.70;99.90;;;;;;2055807;28;20026;-69
2024/02/04 02:17:59;;;;;;;3.22;2.60;;;8.70;99.90;;;;;;2066254;28;20506;-70
2024/02/04 02:19:21;;;;;;;4.10;2.50;;;8.70;99.90;;;;;;2063909;28;20037;-69
2024/02/04 02:20:32;;;;;;;4.43;2.60;;;8.60;99.90;;;;;;2067972;28;20037;-69
2024/02/04 02:22:02;;;;;;;3.25;2.65;;;8.60;99.90;;;;;;2072221;28;20594;-69
2024/02/04 02:23:17;;;;;;;3.53;2.75;;;8.60;99.90;;;;;;2065771;28;20120;-69
2024/02/04 02:24:23;;;;;;;4.13;3.03;;;8.60;99.90;;;;;;2058994;28;20025;-69
2024/02/04 02:25:24;;;;;;;3.80;3.13;;;8.60;99.90;;;;;;2062998;28;20029;-72
2024/02/04 02:26:25;;;;;;;3.42;3.10;;;8.60;99.90;;;;;;2067616;28;20109;-70
2024/02/04 02:27:26;;;;;;;3.95;3.55;;;8.60;99.90;;;;;;2063162;28;20532;-70
2024/02/04 02:28:26;;;;;;;5.22;3.60;;;8.60;99.90;;;;;;2068525;28;20034;-70
2024/02/04 02:29:27;;;;;;;6.10;3.70;;;8.60;99.90;;;;;;2062242;28;20531;-71
2024/02/04 02:30:28;;;;;;;5.10;3.75;;;8.60;99.90;;;;;;2069028;28;20534;-71
2024/02/04 02:31:28;;;;;;;4.82;3.80;;;8.60;99.90;;;;;;2061533;28;20026;-71
2024/02/04 02:32:29;;;;;;;4.75;3.90;;;8.60;99.90;;;;;;2063258;28;20038;-70
2024/02/04 02:33:30;;;;;;;4.45;3.88;;;8.60;99.90;;;;;;2064903;28;20046;-70
2024/02/04 02:34:31;;;;;;;4.90;3.97;;;8.60;99.90;;;;;;2066620;28;20018;-70
2024/02/04 02:35:32;;;;;;;4.80;4.10;;;8.50;99.90;;;;;;2064813;28;20793;-70
2024/02/04 02:36:40;;;;;;;5.97;4.38;;;8.50;99.90;;;;;;2064824;28;20053;-70
2024/02/04 02:37:59;;;;;;;5.78;4.55;;;8.60;99.90;;;;;;2059155;28;20060;-70
2024/02/04 02:39:10;;;;;;;6.43;4.63;;;8.60;99.90;;;;;;2068464;28;20064;-70
2024/02/04 02:40:19;;;;;;;;;;;8.60;99.90;;;;;;2068297;28;20026;-70
2024/02/04 02:41:21;;;;;;;7.32;4.65;;;8.60;99.90;;;;;;2063629;28;19992;-70
2024/02/04 02:42:23;;;;;;;6.28;4.78;;;8.60;99.90;;;;;;2070391;28;20132;-70
2024/02/04 02:43:25;;;;;;;7.50;4.95;;;8.60;99.90;;;;;;2067320;28;20547;-70
2024/02/04 02:44:28;;;;;;;7.28;5.13;;;8.60;99.90;;;;;;2066502;28;20025;-69
2024/02/04 02:45:28;;;;;;;8.15;5.15;;;8.70;99.90;;;;;;2058561;28;20125;-70
2024/02/04 02:46:29;;;;;;;6.60;5.00;;;8.70;99.90;;;;;;2064353;28;20067;-70
2024/02/04 02:47:31;;;;;;;6.03;4.85;;;8.70;99.90;;;;;;2065138;28;20065;-71
2024/02/04 02:48:32;;;;;;;9.38;5.25;;;8.70;99.90;;;;;;2068026;28;20029;-70
2024/02/04 02:49:33;;;;;;;7.80;5.85;;;8.70;99.90;;;;;;2069473;28;20018;-70
2024/02/04 02:50:33;;;;;;;7.60;5.32;;;8.70;99.90;;;;;;2069272;28;20558;-70
2024/02/04 02:51:34;;;;;;;6.88;5.40;;;8.70;99.90;;;;;;2063130;28;20407;-70
2024/02/04 02:52:34;;;;;;;7.20;5.35;;;8.70;99.90;;;;;;2059306;28;20088;-70
2024/02/04 02:53:35;;;;;;;8.07;5.50;;;8.70;99.90;;;;;;2067146;28;20021;-70
2024/02/04 02:54:35;;;;;;;8.52;5.97;;;8.70;99.90;;;;;;2067489;28;20030;-70
2024/02/04 02:55:36;;;;;;;7.05;5.38;;;8.70;99.90;;;;;;2062606;28;20022;-70
2024/02/04 02:56:37;;;;;;;8.20;5.82;;;8.70;99.90;;;;;;2065069;28;20025;-70
2024/02/04 02:57:38;;;;;;;8.68;6.20;;;8.70;99.90;;;;;;2068856;28;20052;-70
2024/02/04 02:58:38;;;;;;;6.90;5.43;;;8.80;99.90;;;;;;2070877;28;20037;-70
2024/02/04 02:59:39;;;;;;;8.10;5.72;;;8.80;99.90;;;;;;2063588;28;20505;-70
2024/02/04 03:00:40;;;;;;;9.23;6.22;;;8.80;99.90;;;;;;2068882;28;20026;-69
2024/02/04 03:01:40;;;;;;;6.97;5.82;;;8.80;99.90;;;;;;2063937;28;20050;-70
2024/02/04 03:02:41;;;;;;;7.45;5.90;;;8.80;99.90;;;;;;2071068;28;20563;-69
2024/02/04 03:03:41;;;;;;;8.65;6.32;;;8.70;99.90;;;;;;2069193;28;20037;-70
2024/02/04 03:04:42;;;;;;;8.93;5.80;;;8.70;99.90;;;;;;2059632;28;20041;-70
2024/02/04 03:05:42;;;;;;;8.88;5.95;;;8.80;99.90;;;;;;2069344;28;20702;-70
2024/02/04 03:06:43;;;;;;;10.00;6.25;;;8.80;99.90;;;;;;2069094;28;20524;-70
2024/02/04 03:07:43;;;;;;;9.57;5.78;;;8.80;99.90;;;;;;2061995;28;20044;-69
2024/02/04 03:08:44;;;;;;;10.75;6.53;;;8.80;99.90;;;;;;2062026;28;20042;-70
2024/02/04 03:09:45;;;;;;;9.48;6.70;;;8.80;99.90;;;;;;2067837;28;20026;-70
2024/02/04 03:10:45;;;;;;;9.95;6.30;;;8.80;99.90;;;;;;2071082;28;20025;-70
2024/02/04 03:11:46;;;;;;;9.18;6.28;;;8.80;99.90;;;;;;2068111;28;20026;-70
2024/02/04 03:12:47;;;;;;;9.30;6.40;;;8.80;99.90;;;;;;2076417;28;20082;-70
2024/02/04 03:13:47;;;;;;;8.32;6.15;;;8.80;99.90;;;;;;2075593;28;20033;-70
2024/02/04 03:14:47;;;;;;;8.80;6.28;;;8.80;99.90;;;;;;2069985;28;20022;-70
2024/02/04 03:15:48;;;;;;;9.65;6.00;;;8.80;99.90;;;;;;2061457;28;20859;-70
2024/02/04 03:16:49;;;;;;;8.75;5.80;;;8.90;99.90;;;;;;2059247;28;20080;-70
2024/02/04 03:17:49;;;;;;;8.13;5.78;;;8.90;99.90;;;;;;2071640;28;20113;-70
2024/02/04 03:18:52;;;;;;;10.07;6.10;;;8.90;99.90;;;;;;2071984;28;20024;-70
2024/02/04 03:19:54;;;;;;;8.55;5.63;;;8.90;99.90;;;;;;2060233;28;20037;-70
2024/02/04 03:20:55;;;;;;;8.82;5.97;;;8.90;99.90;;;;;;2052060;28;20077;-71
2024/02/04 03:21:55;;;;;;;9.27;5.22;;;8.90;99.90;;;;;;2071372;28;20070;-70
2024/02/04 03:22:57;;;;;;;8.13;5.50;;;8.90;99.90;;;;;;2060379;28;20027;-71
2024/02/04 03:23:57;;;;;;;8.35;5.60;;;8.90;99.90;;;;;;2071544;28;20053;-70
2024/02/04 03:24:58;;;;;;;7.55;5.32;;;8.90;99.90;;;;;;2079899;28;20037;-71
2024/02/04 03:25:58;;;;;;;7.53;4.78;;;8.90;99.90;;;;;;2076569;28;20033;-71
2024/02/04 03:26:59;;;;;;;6.68;5.18;;;8.90;99.90;;;;;;2073878;28;20030;-70
2024/02/04 03:28:00;;;;;;;7.22;4.90;;;8.90;99.90;;;;;;2071784;28;20575;-70
2024/02/04 03:29:04;;;;;;;6.45;4.30;;;8.80;99.90;;;;;;2063606;28;20030;-70
2024/02/04 03:30:06;;;;;;;6.20;4.28;;;8.80;99.90;;;;;;2068266;28;20440;-70
2024/02/04 03:31:07;;;;;;;7.15;4.32;;;8.90;99.90;;;;;;2059534;28;20163;-70
2024/02/04 03:32:07;;;;;;;5.53;4.10;;;8.80;99.90;;;;;;2055866;28;20089;-70
2024/02/04 03:33:08;;;;;;;4.97;3.80;;;8.80;99.90;;;;;;2068836;28;20093;-70
2024/02/04 03:34:08;;;;;;;4.78;4.00;;;8.80;99.90;;;;;;2062686;28;20061;-69
2024/02/04 03:35:09;;;;;;;5.05;3.65;;;8.80;99.90;;;;;;2071644;28;20089;-69
2024/02/04 03:36:10;;;;;;;4.97;3.50;;;8.80;99.90;;;;;;2068962;28;20087;-70
2024/02/04 03:37:11;;;;;;;5.18;3.40;;;8.80;99.90;;;;;;2062325;28;20030;-69
2024/02/04 03:38:11;;;;;;;5.45;3.70;;;8.80;99.90;;;;;;2071885;28;20144;-70
2024/02/04 03:39:12;;;;;;;5.68;3.33;;;8.80;99.90;;;;;;2065139;28;20584;-70
2024/02/04 03:40:12;;;;;;;4.40;3.25;;;8.90;99.90;;;;;;2070474;28;20026;-70
2024/02/04 03:41:13;;;;;;;5.30;3.42;;;8.90;99.90;;;;;;2071632;28;20029;-69
2024/02/04 03:42:14;;;;;;;3.75;3.40;;;8.90;99.90;;;;;;2061768;28;20058;-69
2024/02/04 03:43:15;;;;;;;4.40;3.17;;;8.90;99.90;;;;;;2063778;28;20109;-69
2024/02/04 03:44:15;;;;;;;3.97;3.38;;;8.90;99.90;;;;;;2073689;28;20466;-70
2024/02/04 03:45:16;;;;;;;5.15;3.42;;;8.80;99.90;;;;;;2067855;28;20084;-69
2024/02/04 03:46:17;;;;;;;5.18;3.70;;;8.90;99.90;;;;;;2063634;28;20048;-70
2024/02/04 03:47:17;;;;;;;5.30;3.30;;;8.80;99.90;;;;;;2069703;28;20044;-70
2024/02/04 03:48:18;;;;;;;5.35;3.45;;;8.90;99.90;;;;;;2062075;28;20058;-70
2024/02/04 03:49:19;;;;;;;4.10;3.28;;;8.90;99.90;;;;;;2055767;28;20090;-70
2024/02/04 03:50:20;;;;;;;4.80;3.63;;;8.80;99.90;;;;;;2068823;28;20052;-70
2024/02/04 03:51:20;;;;;;;6.38;3.78;;;8.80;99.90;;;;;;2068573;28;20025;-70
2024/02/04 03:52:22;;;;;;;4.75;3.58;;;8.80;99.90;;;;;;2071634;28;20033;-70
2024/02/04 03:53:23;;;;;;;5.97;3.47;;;8.80;99.90;;;;;;2062770;28;20077;-70
2024/02/04 03:54:24;;;;;;;4.68;3.60;;;8.80;99.90;;;;;;2061928;28;23063;-70
2024/02/04 03:55:25;;;;;;;4.13;3.40;;;8.80;99.90;;;;;;2072159;28;20042;-70
2024/02/04 03:56:26;;;;;;;5.13;3.85;;;8.80;99.90;;;;;;2071277;28;20021;-70
2024/02/04 03:57:26;;;;;;;5.68;3.40;;;8.80;99.90;;;;;;2069080;28;20085;-70
2024/02/04 03:58:29;;;;;;;5.20;3.78;;;8.80;99.90;;;;;;2068584;28;20488;-70
2024/02/04 03:59:30;;;;;;;6.65;3.75;;;8.80;99.90;;;;;;2066804;28;20777;-70
2024/02/04 04:00:30;;;;;;;5.05;3.80;;;8.80;99.90;;;;;;2076722;28;20020;-69
2024/02/04 04:01:31;;;;;;;5.07;3.50;;;8.80;99.90;;;;;;2070877;28;20029;-69
2024/02/04 04:02:32;;;;;;;5.05;3.80;;;8.80;99.90;;;;;;2067354;28;20124;-71
2024/02/04 04:03:32;;;;;;;4.53;3.97;;;8.80;99.90;;;;;;2071627;28;20034;-71
2024/02/04 04:04:33;;;;;;;4.97;3.63;;;8.80;99.90;;;;;;2066179;28;20030;-70
2024/02/04 04:05:33;;;;;;;4.68;3.72;;;8.80;99.90;;;;;;2071685;28;20549;-69
2024/02/04 04:06:34;;;;;;;6.18;3.78;;;8.80;99.90;;;;;;2065145;28;20034;-70
2024/02/04 04:07:34;;;;;;;6.55;3.88;;;8.80;99.90;;;;;;2067014;28;20022;-69
2024/02/04 04:08:35;;;;;;;4.95;3.65;;;8.80;99.90;;;;;;2061489;28;20030;-70
2024/02/04 04:09:36;;;;;;;7.45;4.20;;;8.80;99.90;;;;;;2067978;28;20033;-69
2024/02/04 04:10:36;;;;;;;6.93;3.95;;;8.80;99.90;;;;;;2067646;28;20045;-69
2024/02/04 04:11:37;;;;;;;4.60;3.80;;;8.80;99.90;;;;;;2067789;28;20030;-69
2024/02/04 04:12:37;;;;;;;5.43;4.28;;;8.70;99.90;;;;;;2067859;28;20033;-70
2024/02/04 04:13:38;;;;;;;4.65;3.83;;;8.70;99.90;;;;;;2068370;28;20018;-71
2024/02/04 04:14:39;;;;;;;6.32;4.20;;;8.70;99.90;;;;;;2068461;28;20168;-70
2024/02/04 04:15:42;;;;;;;6.18;3.90;;;8.70;99.90;;;;;;2068261;28;20116;-69
2024/02/04 04:16:42;;;;;;;5.97;4.30;;;8.70;99.90;;;;;;2071773;28;20028;-69
2024/02/04 04:17:43;;;;;;;4.60;4.03;;;8.70;99.90;;;;;;2065420;28;20511;-69
2024/02/04 04:18:43;;;;;;;7.22;4.57;;;8.70;99.90;;;;;;2071205;28;20695;-70
2024/02/04 04:19:44;;;;;;;5.43;4.40;;;8.70;99.90;;;;;;2067933;28;20037;-70
2024/02/04 04:20:44;;;;;;;6.93;4.30;;;8.70;99.90;;;;;;2065717;28;20026;-69
2024/02/04 04:21:45;;;;;;;6.05;4.70;;;8.70;99.90;;;;;;2071200;28;20022;-70
2024/02/04 04:22:45;;;;;;;5.00;4.38;;;8.70;99.90;;;;;;2063559;28;20546;-70
2024/02/04 04:23:46;;;;;;;7.53;5.00;;;8.70;99.90;;;;;;2071250;28;20528;-69
2024/02/04 04:24:46;;;;;;;5.55;4.20;;;8.70;99.90;;;;;;2071617;28;20075;-70
2024/02/04 04:25:47;;;;;;;5.75;4.13;;;8.70;99.90;;;;;;2064178;28;20049;-70
2024/02/04 04:26:47;;;;;;;6.63;4.80;;;8.70;99.90;;;;;;2071380;28;20120;-70
2024/02/04 04:27:48;;;;;;;8.05;4.78;;;8.70;99.90;;;;;;2071401;28;20033;-70
2024/02/04 04:28:48;;;;;;;5.82;4.15;;;8.70;99.90;;;;;;2064350;28;20072;-71
2024/02/04 04:29:49;;;;;;;6.35;4.95;;;8.70;99.90;;;;;;2079019;28;20029;-70
2024/02/04 04:30:49;;;;;;;6.10;4.82;;;8.70;99.90;;;;;;2075461;28;20061;-70
2024/02/04 04:31:51;;;;;;;7.05;5.00;;;8.70;99.90;;;;;;2063435;28;20472;-71
2024/02/04 04:32:52;;;;;;;6.45;4.95;;;8.70;99.90;;;;;;2066981;28;20081;-70
2024/02/04 04:33:53;;;;;;;7.75;5.15;;;8.70;99.90;;;;;;2065332;28;20038;-70
2024/02/04 04:34:55;;;;;;;7.63;5.10;;;8.80;99.90;;;;;;2068139;28;20534;-70
2024/02/04 04:35:56;;;;;;;7.05;5.10;;;8.80;99.90;;;;;;2064328;28;20105;-70
2024/02/04 04:36:56;;;;;;;7.22;4.93;;;8.80;99.90;;;;;;2067962;28;20137;-70
2024/02/04 04:37:57;;;;;;;6.80;4.60;;;8.80;99.90;;;;;;2064154;28;20026;-70
2024/02/04 04:38:57;;;;;;;5.93;4.63;;;8.80;99.90;;;;;;2068134;28;20038;-70
2024/02/04 04:39:58;;;;;;;6.05;4.80;;;8.80;99.90;;;;;;2068221;28;20103;-70
2024/02/04 04:40:58;;;;;;;5.70;4.68;;;8.80;99.90;;;;;;2071415;28;20044;-69
2024/02/04 04:41:59;;;;;;;6.00;4.50;;;8.80;99.90;;;;;;2067699;28;20037;-70
2024/02/04 04:42:59;;;;;;;7.97;4.70;;;8.90;99.90;;;;;;2065589;28;20042;-70
2024/02/04 04:44:00;;;;;;;6.68;4.80;;;8.90;99.90;;;;;;2075969;28;20094;-70
2024/02/04 04:45:01;;;;;;;8.10;4.43;;;9.00;99.90;;;;;;2075598;28;20030;-69
2024/02/04 04:46:01;;;;;;;6.45;4.55;;;9.00;99.90;;;;;;2069581;28;20045;-71
2024/02/04 04:47:02;;;;;;;6.75;3.97;;;9.00;99.90;;;;;;2070328;28;20030;-70
2024/02/04 04:48:02;;;;;;;6.25;4.20;;;9.00;99.90;;;;;;2070258;28;20029;-70
2024/02/04 04:49:03;;;;;;;4.63;3.78;;;9.00;99.90;;;;;;2062975;28;20042;-71
2024/02/04 04:50:05;;;;;;;7.22;4.30;;;9.00;99.90;;;;;;2061402;28;20037;-71
2024/02/04 04:51:11;;;;;;;5.80;4.05;;;9.00;99.90;;;;;;2067502;28;20088;-70
2024/02/04 04:52:12;;;;;;;5.45;3.90;;;9.00;99.90;;;;;;2071186;28;20776;-71
2024/02/04 04:53:13;;;;;;;5.55;3.88;;;9.00;99.90;;;;;;2071561;28;20041;-70
2024/02/04 04:54:13;;;;;;;6.88;4.10;;;9.00;99.90;;;;;;2072004;28;20026;-70
2024/02/04 04:55:14;;;;;;;5.03;3.80;;;9.00;99.90;;;;;;2068031;28;20080;-68
2024/02/04 04:56:15;;;;;;;5.68;3.83;;;9.00;99.90;;;;;;2067521;28;20121;-70
2024/02/04 04:57:15;;;;;;;5.05;3.67;;;9.00;99.90;;;;;;2070793;28;20097;-71
2024/02/04 04:58:16;;;;;;;5.45;3.80;;;9.00;99.90;;;;;;2071431;28;20024;-70
2024/02/04 04:59:16;;;;;;;5.90;3.72;;;9.00;99.90;;;;;;2064789;28;20026;-69
2024/02/04 05:00:17;;;;;;;5.72;4.00;;;9.00;99.90;;;;;;2079320;28;20108;-79
2024/02/04 05:01:18;;;;;;;5.65;4.20;;;9.00;99.90;;;;;;2079189;28;20032;-77
2024/02/04 05:02:21;;;;;;;4.95;3.70;;;9.00;99.90;;;;;;2066879;28;20036;-71
2024/02/04 05:03:22;;;;;;;5.40;3.80;;;8.90;99.90;;;;;;2063963;28;20133;-71
2024/02/04 05:04:25;;;;;;;6.70;3.90;;;8.90;99.90;;;;;;2070998;28;20038;-74
2024/02/04 05:05:25;;;;;;;4.88;3.90;;;8.90;99.90;;;;;;2067700;28;20041;-75
2024/02/04 05:06:26;;;;;;;5.97;4.03;;;8.90;99.90;;;;;;2064039;28;20050;-75
2024/02/04 05:07:26;;;;;;;5.28;3.63;;;8.90;99.90;;;;;;2071265;28;20038;-74
2024/02/04 05:08:27;;;;;;;4.78;3.70;;;8.90;99.90;;;;;;2070735;28;20026;-75
2024/02/04 05:09:27;;;;;;;5.97;3.90;;;8.80;99.90;;;;;;2065739;28;20045;-75
2024/02/04 05:10:28;;;;;;;6.43;4.07;;;8.80;99.90;;;;;;2059835;28;20439;-75
2024/02/04 05:11:29;;;;;;;4.85;3.90;;;8.80;99.90;;;;;;2063792;28;20145;-74
2024/02/04 05:12:30;;;;;;;5.60;3.97;;;8.80;99.90;;;;;;2067835;28;20095;-74
2024/02/04 05:13:30;;;;;;;6.03;3.80;;;8.80;99.90;;;;;;2067249;28;20038;-74
2024/02/04 05:14:31;;;;;;;5.30;3.97;;;8.80;99.90;;;;;;2071874;28;20082;-76
2024/02/04 05:15:33;;;;;;;4.97;4.00;;;8.70;99.90;;;;;;2068857;28;20116;-74
2024/02/04 05:16:35;;;;;;;6.18;3.90;;;8.80;99.90;;;;;;2069815;28;20037;-74
2024/02/04 05:17:36;;;;;;;6.30;3.90;;;8.80;99.90;;;;;;2069650;28;20068;-74
2024/02/04 05:18:36;;;;;;;5.85;3.83;;;8.80;99.90;;;;;;2071953;28;20021;-74
2024/02/04 05:19:37;;;;;;;5.53;4.05;;;8.80;99.90;;;;;;2070979;28;20096;-74
2024/02/04 05:20:37;;;;;;;4.72;3.70;;;8.80;99.90;;;;;;2063797;28;20061;-74
2024/02/04 05:21:40;;;;;;;6.55;4.15;;;8.90;99.90;;;;;;2070120;28;20061;-75
2024/02/04 05:22:40;;;;;;;4.90;3.65;;;8.90;99.90;;;;;;2071594;28;20056;-74
2024/02/04 05:23:41;;;;;;;5.90;3.47;;;8.90;99.90;;;;;;2069202;28;20495;-74